sensor_id;sensor_type;location;lat;lon;timestamp;P1;durP1;ratioP1;P2;durP2;ratioP2
297;SDS011;133;49.626;9.680;2022-12-18T00:02:01;37.93;;;18.80;;
297;SDS011;133;49.626;9.680;2022-12-18T00:04:27;33.72;;;18.70;;
297;SDS011;133;49.626;9.680;2022-12-18T00:06:53;30.55;;;17.00;;
297;SDS011;133;49.626;9.680;2022-12-18T00:09:19;26.63;;;15.60;;
297;SDS011;133;49.626;9.680;2022-12-18T00:11:44;25.97;;;16.43;;
297;SDS011;133;49.626;9.680;2022-12-18T00:14:11;30.73;;;15.90;;
297;SDS011;133;49.626;9.680;2022-12-18T00:16:38;25.50;;;14.85;;
297;SDS011;133;49.626;9.680;2022-12-18T00:19:04;25.85;;;15.10;;
297;SDS011;133;49.626;9.680;2022-12-18T00:21:34;24.63;;;15.50;;
297;SDS011;133;49.626;9.680;2022-12-18T00:24:00;24.50;;;14.80;;
297;SDS011;133;49.626;9.680;2022-12-18T00:26:27;26.33;;;16.07;;
297;SDS011;133;49.626;9.680;2022-12-18T00:28:54;33.25;;;17.70;;
297;SDS011;133;49.626;9.680;2022-12-18T00:31:25;28.10;;;16.77;;
297;SDS011;133;49.626;9.680;2022-12-18T00:33:52;25.30;;;15.52;;
297;SDS011;133;49.626;9.680;2022-12-18T00:36:20;26.65;;;16.52;;
297;SDS011;133;49.626;9.680;2022-12-18T00:38:47;30.98;;;17.05;;
297;SDS011;133;49.626;9.680;2022-12-18T00:41:14;28.50;;;16.38;;
297;SDS011;133;49.626;9.680;2022-12-18T00:44:04;27.42;;;16.23;;
297;SDS011;133;49.626;9.680;2022-12-18T00:46:31;27.95;;;15.35;;
297;SDS011;133;49.626;9.680;2022-12-18T00:48:57;28.73;;;15.85;;
297;SDS011;133;49.626;9.680;2022-12-18T00:51:23;32.83;;;17.23;;
297;SDS011;133;49.626;9.680;2022-12-18T00:53:49;28.65;;;16.25;;
297;SDS011;133;49.626;9.680;2022-12-18T00:56:15;26.48;;;15.18;;
297;SDS011;133;49.626;9.680;2022-12-18T00:58:41;22.80;;;14.63;;
297;SDS011;133;49.626;9.680;2022-12-18T01:01:06;26.13;;;16.00;;
297;SDS011;133;49.626;9.680;2022-12-18T01:03:33;26.17;;;15.07;;
297;SDS011;133;49.626;9.680;2022-12-18T01:06:06;23.17;;;14.95;;
297;SDS011;133;49.626;9.680;2022-12-18T01:08:32;29.50;;;16.95;;
297;SDS011;133;49.626;9.680;2022-12-18T01:10:58;28.37;;;16.17;;
297;SDS011;133;49.626;9.680;2022-12-18T01:13:23;26.30;;;15.60;;
297;SDS011;133;49.626;9.680;2022-12-18T01:15:49;29.50;;;16.50;;
297;SDS011;133;49.626;9.680;2022-12-18T01:18:15;25.88;;;15.90;;
297;SDS011;133;49.626;9.680;2022-12-18T01:20:41;28.53;;;15.67;;
297;SDS011;133;49.626;9.680;2022-12-18T01:23:07;27.87;;;16.17;;
297;SDS011;133;49.626;9.680;2022-12-18T01:25:32;25.80;;;15.40;;
297;SDS011;133;49.626;9.680;2022-12-18T01:28:00;33.33;;;17.45;;
297;SDS011;133;49.626;9.680;2022-12-18T01:30:26;30.10;;;17.38;;
297;SDS011;133;49.626;9.680;2022-12-18T01:32:52;26.83;;;16.13;;
297;SDS011;133;49.626;9.680;2022-12-18T01:35:18;32.10;;;18.27;;
297;SDS011;133;49.626;9.680;2022-12-18T01:37:45;30.75;;;15.95;;
297;SDS011;133;49.626;9.680;2022-12-18T01:40:11;30.27;;;16.27;;
297;SDS011;133;49.626;9.680;2022-12-18T01:42:37;24.23;;;15.50;;
297;SDS011;133;49.626;9.680;2022-12-18T01:47:47;32.38;;;16.88;;
297;SDS011;133;49.626;9.680;2022-12-18T01:50:18;28.38;;;14.98;;
297;SDS011;133;49.626;9.680;2022-12-18T01:53:11;28.50;;;16.10;;
297;SDS011;133;49.626;9.680;2022-12-18T01:55:50;27.08;;;15.25;;
297;SDS011;133;49.626;9.680;2022-12-18T01:58:18;32.05;;;17.55;;
297;SDS011;133;49.626;9.680;2022-12-18T02:00:47;36.60;;;17.38;;
297;SDS011;133;49.626;9.680;2022-12-18T02:03:13;31.53;;;18.23;;
297;SDS011;133;49.626;9.680;2022-12-18T02:08:08;32.23;;;16.13;;
297;SDS011;133;49.626;9.680;2022-12-18T02:19:14;27.95;;;16.65;;
297;SDS011;133;49.626;9.680;2022-12-18T02:25:02;28.63;;;14.93;;
297;SDS011;133;49.626;9.680;2022-12-18T02:27:49;32.05;;;15.18;;
297;SDS011;133;49.626;9.680;2022-12-18T02:30:17;27.95;;;15.80;;
297;SDS011;133;49.626;9.680;2022-12-18T02:32:46;28.38;;;17.08;;
297;SDS011;133;49.626;9.680;2022-12-18T02:35:16;27.02;;;15.38;;
297;SDS011;133;49.626;9.680;2022-12-18T02:37:46;25.17;;;14.45;;
297;SDS011;133;49.626;9.680;2022-12-18T02:40:13;30.95;;;15.18;;
297;SDS011;133;49.626;9.680;2022-12-18T02:42:40;31.50;;;16.50;;
297;SDS011;133;49.626;9.680;2022-12-18T02:45:06;34.93;;;16.80;;
297;SDS011;133;49.626;9.680;2022-12-18T02:47:33;26.35;;;14.55;;
297;SDS011;133;49.626;9.680;2022-12-18T02:55:35;40.50;;;16.83;;
297;SDS011;133;49.626;9.680;2022-12-18T02:58:11;29.52;;;16.35;;
297;SDS011;133;49.626;9.680;2022-12-18T03:00:53;25.75;;;14.27;;
297;SDS011;133;49.626;9.680;2022-12-18T03:03:38;32.80;;;16.13;;
297;SDS011;133;49.626;9.680;2022-12-18T03:06:14;32.22;;;16.65;;
297;SDS011;133;49.626;9.680;2022-12-18T03:08:51;33.75;;;17.77;;
297;SDS011;133;49.626;9.680;2022-12-18T03:11:22;29.25;;;17.05;;
297;SDS011;133;49.626;9.680;2022-12-18T03:14:09;34.60;;;18.20;;
297;SDS011;133;49.626;9.680;2022-12-18T03:16:38;30.95;;;16.98;;
297;SDS011;133;49.626;9.680;2022-12-18T03:19:18;31.92;;;17.10;;
297;SDS011;133;49.626;9.680;2022-12-18T03:21:48;30.30;;;16.55;;
297;SDS011;133;49.626;9.680;2022-12-18T03:24:18;35.17;;;16.95;;
297;SDS011;133;49.626;9.680;2022-12-18T03:26:46;37.83;;;17.42;;
297;SDS011;133;49.626;9.680;2022-12-18T03:29:22;27.25;;;15.43;;
297;SDS011;133;49.626;9.680;2022-12-18T03:31:53;28.20;;;16.42;;
297;SDS011;133;49.626;9.680;2022-12-18T03:34:23;28.05;;;17.20;;
297;SDS011;133;49.626;9.680;2022-12-18T03:36:58;26.10;;;16.00;;
297;SDS011;133;49.626;9.680;2022-12-18T03:39:24;29.97;;;17.40;;
297;SDS011;133;49.626;9.680;2022-12-18T03:44:48;25.65;;;14.90;;
297;SDS011;133;49.626;9.680;2022-12-18T03:52:45;25.30;;;14.88;;
297;SDS011;133;49.626;9.680;2022-12-18T03:55:18;29.58;;;15.55;;
297;SDS011;133;49.626;9.680;2022-12-18T03:57:49;28.90;;;15.73;;
297;SDS011;133;49.626;9.680;2022-12-18T04:00:17;33.13;;;16.13;;
297;SDS011;133;49.626;9.680;2022-12-18T04:02:52;28.42;;;14.88;;
297;SDS011;133;49.626;9.680;2022-12-18T04:05:20;27.17;;;14.90;;
297;SDS011;133;49.626;9.680;2022-12-18T04:07:48;31.08;;;15.23;;
297;SDS011;133;49.626;9.680;2022-12-18T04:10:16;26.85;;;15.98;;
297;SDS011;133;49.626;9.680;2022-12-18T04:12:42;28.10;;;15.43;;
297;SDS011;133;49.626;9.680;2022-12-18T04:15:09;24.80;;;14.93;;
297;SDS011;133;49.626;9.680;2022-12-18T04:17:39;31.25;;;16.77;;
297;SDS011;133;49.626;9.680;2022-12-18T04:20:12;32.25;;;15.57;;
297;SDS011;133;49.626;9.680;2022-12-18T04:22:37;32.30;;;16.10;;
297;SDS011;133;49.626;9.680;2022-12-18T04:25:05;31.63;;;16.42;;
297;SDS011;133;49.626;9.680;2022-12-18T04:27:31;30.30;;;16.17;;
297;SDS011;133;49.626;9.680;2022-12-18T04:29:56;27.30;;;15.30;;
297;SDS011;133;49.626;9.680;2022-12-18T04:32:22;30.13;;;16.40;;
297;SDS011;133;49.626;9.680;2022-12-18T04:34:48;28.20;;;16.70;;
297;SDS011;133;49.626;9.680;2022-12-18T04:37:13;27.80;;;16.30;;
297;SDS011;133;49.626;9.680;2022-12-18T04:39:39;30.13;;;16.30;;
297;SDS011;133;49.626;9.680;2022-12-18T04:42:05;32.43;;;16.43;;
297;SDS011;133;49.626;9.680;2022-12-18T04:44:30;25.47;;;15.70;;
297;SDS011;133;49.626;9.680;2022-12-18T04:46:56;26.73;;;15.60;;
297;SDS011;133;49.626;9.680;2022-12-18T04:49:21;28.47;;;16.03;;
297;SDS011;133;49.626;9.680;2022-12-18T04:51:47;27.77;;;15.60;;
297;SDS011;133;49.626;9.680;2022-12-18T04:54:13;31.27;;;16.93;;
297;SDS011;133;49.626;9.680;2022-12-18T04:56:38;25.30;;;16.50;;
297;SDS011;133;49.626;9.680;2022-12-18T04:59:04;29.58;;;16.35;;
297;SDS011;133;49.626;9.680;2022-12-18T05:01:30;33.77;;;16.87;;
297;SDS011;133;49.626;9.680;2022-12-18T05:03:58;28.17;;;15.55;;
297;SDS011;133;49.626;9.680;2022-12-18T05:06:24;29.30;;;16.80;;
297;SDS011;133;49.626;9.680;2022-12-18T05:08:49;28.30;;;16.60;;
297;SDS011;133;49.626;9.680;2022-12-18T05:11:15;29.00;;;15.47;;
297;SDS011;133;49.626;9.680;2022-12-18T05:13:43;28.27;;;15.80;;
297;SDS011;133;49.626;9.680;2022-12-18T05:16:12;32.08;;;15.50;;
297;SDS011;133;49.626;9.680;2022-12-18T05:18:39;22.73;;;14.48;;
297;SDS011;133;49.626;9.680;2022-12-18T05:21:05;28.10;;;14.80;;
297;SDS011;133;49.626;9.680;2022-12-18T05:23:31;32.57;;;15.73;;
297;SDS011;133;49.626;9.680;2022-12-18T05:25:58;31.33;;;16.90;;
297;SDS011;133;49.626;9.680;2022-12-18T05:28:25;30.25;;;15.73;;
297;SDS011;133;49.626;9.680;2022-12-18T05:30:53;30.25;;;15.48;;
297;SDS011;133;49.626;9.680;2022-12-18T05:33:21;31.42;;;17.00;;
297;SDS011;133;49.626;9.680;2022-12-18T05:35:51;31.90;;;16.33;;
297;SDS011;133;49.626;9.680;2022-12-18T05:38:19;28.38;;;15.50;;
297;SDS011;133;49.626;9.680;2022-12-18T05:40:45;23.83;;;14.95;;
297;SDS011;133;49.626;9.680;2022-12-18T05:43:12;30.42;;;16.05;;
297;SDS011;133;49.626;9.680;2022-12-18T05:45:38;32.17;;;16.00;;
297;SDS011;133;49.626;9.680;2022-12-18T05:48:04;34.88;;;17.45;;
297;SDS011;133;49.626;9.680;2022-12-18T05:50:30;32.37;;;16.33;;
297;SDS011;133;49.626;9.680;2022-12-18T05:52:57;29.73;;;17.60;;
297;SDS011;133;49.626;9.680;2022-12-18T05:55:22;40.63;;;20.95;;
297;SDS011;133;49.626;9.680;2022-12-18T05:57:48;43.73;;;24.63;;
297;SDS011;133;49.626;9.680;2022-12-18T06:00:13;40.63;;;20.60;;
297;SDS011;133;49.626;9.680;2022-12-18T06:02:42;31.88;;;16.98;;
297;SDS011;133;49.626;9.680;2022-12-18T06:05:11;30.55;;;16.63;;
297;SDS011;133;49.626;9.680;2022-12-18T06:07:36;30.70;;;16.20;;
297;SDS011;133;49.626;9.680;2022-12-18T06:10:02;34.27;;;18.20;;
297;SDS011;133;49.626;9.680;2022-12-18T06:12:28;37.63;;;17.53;;
297;SDS011;133;49.626;9.680;2022-12-18T06:14:53;32.67;;;16.80;;
297;SDS011;133;49.626;9.680;2022-12-18T06:17:19;34.23;;;17.17;;
297;SDS011;133;49.626;9.680;2022-12-18T06:19:45;27.47;;;15.83;;
297;SDS011;133;49.626;9.680;2022-12-18T06:22:10;35.53;;;17.50;;
297;SDS011;133;49.626;9.680;2022-12-18T06:24:36;28.53;;;16.53;;
297;SDS011;133;49.626;9.680;2022-12-18T06:27:04;28.33;;;16.52;;
297;SDS011;133;49.626;9.680;2022-12-18T06:29:30;25.57;;;15.63;;
297;SDS011;133;49.626;9.680;2022-12-18T06:31:55;28.20;;;14.63;;
297;SDS011;133;49.626;9.680;2022-12-18T06:34:21;30.30;;;14.90;;
297;SDS011;133;49.626;9.680;2022-12-18T06:36:46;36.20;;;17.47;;
297;SDS011;133;49.626;9.680;2022-12-18T06:39:12;29.87;;;17.27;;
297;SDS011;133;49.626;9.680;2022-12-18T06:41:38;29.27;;;16.30;;
297;SDS011;133;49.626;9.680;2022-12-18T06:44:03;33.00;;;16.40;;
297;SDS011;133;49.626;9.680;2022-12-18T06:46:29;32.20;;;16.67;;
297;SDS011;133;49.626;9.680;2022-12-18T06:48:54;33.80;;;17.43;;
297;SDS011;133;49.626;9.680;2022-12-18T06:51:21;34.07;;;16.27;;
297;SDS011;133;49.626;9.680;2022-12-18T06:53:47;30.08;;;16.50;;
297;SDS011;133;49.626;9.680;2022-12-18T06:56:13;28.63;;;16.00;;
297;SDS011;133;49.626;9.680;2022-12-18T06:58:39;28.63;;;16.40;;
297;SDS011;133;49.626;9.680;2022-12-18T07:01:05;36.53;;;17.70;;
297;SDS011;133;49.626;9.680;2022-12-18T07:03:32;34.08;;;18.73;;
297;SDS011;133;49.626;9.680;2022-12-18T07:05:58;31.83;;;17.87;;
297;SDS011;133;49.626;9.680;2022-12-18T07:08:24;31.10;;;16.80;;
297;SDS011;133;49.626;9.680;2022-12-18T07:10:49;36.03;;;17.70;;
297;SDS011;133;49.626;9.680;2022-12-18T07:13:15;41.73;;;22.70;;
297;SDS011;133;49.626;9.680;2022-12-18T07:15:41;32.55;;;20.38;;
297;SDS011;133;49.626;9.680;2022-12-18T07:18:07;30.70;;;18.15;;
297;SDS011;133;49.626;9.680;2022-12-18T07:20:33;32.40;;;17.37;;
297;SDS011;133;49.626;9.680;2022-12-18T07:22:59;29.47;;;16.63;;
297;SDS011;133;49.626;9.680;2022-12-18T07:25:27;32.90;;;17.95;;
297;SDS011;133;49.626;9.680;2022-12-18T07:27:53;32.17;;;19.33;;
297;SDS011;133;49.626;9.680;2022-12-18T07:30:19;45.88;;;22.17;;
297;SDS011;133;49.626;9.680;2022-12-18T07:32:45;36.40;;;19.30;;
297;SDS011;133;49.626;9.680;2022-12-18T07:35:10;37.30;;;18.07;;
297;SDS011;133;49.626;9.680;2022-12-18T07:37:36;33.67;;;17.83;;
297;SDS011;133;49.626;9.680;2022-12-18T07:40:01;32.93;;;20.07;;
297;SDS011;133;49.626;9.680;2022-12-18T07:42:27;36.13;;;20.47;;
297;SDS011;133;49.626;9.680;2022-12-18T07:44:56;33.03;;;18.02;;
297;SDS011;133;49.626;9.680;2022-12-18T07:47:22;32.00;;;15.50;;
297;SDS011;133;49.626;9.680;2022-12-18T07:49:48;32.47;;;18.30;;
297;SDS011;133;49.626;9.680;2022-12-18T07:52:14;34.80;;;20.80;;
297;SDS011;133;49.626;9.680;2022-12-18T07:54:39;34.57;;;17.87;;
297;SDS011;133;49.626;9.680;2022-12-18T07:57:05;28.20;;;17.37;;
297;SDS011;133;49.626;9.680;2022-12-18T07:59:32;30.98;;;16.58;;
297;SDS011;133;49.626;9.680;2022-12-18T08:01:57;28.00;;;16.55;;
297;SDS011;133;49.626;9.680;2022-12-18T08:04:23;35.07;;;17.67;;
297;SDS011;133;49.626;9.680;2022-12-18T08:06:49;36.58;;;17.70;;
297;SDS011;133;49.626;9.680;2022-12-18T08:09:15;34.80;;;16.53;;
297;SDS011;133;49.626;9.680;2022-12-18T08:11:41;45.87;;;18.33;;
297;SDS011;133;49.626;9.680;2022-12-18T08:14:06;37.93;;;17.47;;
297;SDS011;133;49.626;9.680;2022-12-18T08:16:32;36.33;;;16.87;;
297;SDS011;133;49.626;9.680;2022-12-18T08:18:57;34.70;;;15.57;;
297;SDS011;133;49.626;9.680;2022-12-18T08:21:24;40.27;;;17.83;;
297;SDS011;133;49.626;9.680;2022-12-18T08:23:53;41.65;;;18.70;;
297;SDS011;133;49.626;9.680;2022-12-18T08:26:20;39.03;;;18.42;;
297;SDS011;133;49.626;9.680;2022-12-18T08:28:47;38.22;;;17.88;;
297;SDS011;133;49.626;9.680;2022-12-18T08:31:13;40.25;;;19.08;;
297;SDS011;133;49.626;9.680;2022-12-18T08:33:39;39.07;;;17.90;;
297;SDS011;133;49.626;9.680;2022-12-18T08:36:06;32.72;;;16.88;;
297;SDS011;133;49.626;9.680;2022-12-18T08:38:32;41.47;;;19.95;;
297;SDS011;133;49.626;9.680;2022-12-18T08:43:31;38.63;;;18.77;;
297;SDS011;133;49.626;9.680;2022-12-18T08:46:16;47.92;;;21.92;;
297;SDS011;133;49.626;9.680;2022-12-18T08:48:46;45.55;;;21.38;;
297;SDS011;133;49.626;9.680;2022-12-18T08:51:12;33.83;;;18.90;;
297;SDS011;133;49.626;9.680;2022-12-18T08:53:38;38.13;;;18.03;;
297;SDS011;133;49.626;9.680;2022-12-18T08:56:04;41.30;;;19.10;;
297;SDS011;133;49.626;9.680;2022-12-18T08:58:30;39.97;;;20.88;;
297;SDS011;133;49.626;9.680;2022-12-18T09:01:05;42.95;;;20.73;;
297;SDS011;133;49.626;9.680;2022-12-18T09:03:34;43.53;;;19.52;;
297;SDS011;133;49.626;9.680;2022-12-18T09:05:59;46.60;;;23.70;;
297;SDS011;133;49.626;9.680;2022-12-18T09:08:25;57.10;;;27.17;;
297;SDS011;133;49.626;9.680;2022-12-18T09:10:51;49.15;;;24.75;;
297;SDS011;133;49.626;9.680;2022-12-18T09:13:17;42.27;;;21.13;;
297;SDS011;133;49.626;9.680;2022-12-18T09:15:45;42.03;;;19.98;;
297;SDS011;133;49.626;9.680;2022-12-18T09:18:13;52.30;;;21.90;;
297;SDS011;133;49.626;9.680;2022-12-18T09:20:40;42.13;;;21.58;;
297;SDS011;133;49.626;9.680;2022-12-18T09:23:10;46.70;;;21.75;;
297;SDS011;133;49.626;9.680;2022-12-18T09:25:36;47.83;;;22.13;;
297;SDS011;133;49.626;9.680;2022-12-18T09:28:03;75.70;;;29.27;;
297;SDS011;133;49.626;9.680;2022-12-18T09:30:31;55.10;;;22.55;;
297;SDS011;133;49.626;9.680;2022-12-18T09:32:58;47.70;;;21.33;;
297;SDS011;133;49.626;9.680;2022-12-18T09:35:24;47.77;;;20.07;;
297;SDS011;133;49.626;9.680;2022-12-18T09:37:53;37.17;;;18.75;;
297;SDS011;133;49.626;9.680;2022-12-18T09:40:20;38.53;;;19.03;;
297;SDS011;133;49.626;9.680;2022-12-18T09:43:05;34.78;;;19.10;;
297;SDS011;133;49.626;9.680;2022-12-18T09:45:38;38.83;;;18.83;;
297;SDS011;133;49.626;9.680;2022-12-18T09:48:15;42.20;;;19.33;;
297;SDS011;133;49.626;9.680;2022-12-18T09:50:50;45.97;;;21.30;;
297;SDS011;133;49.626;9.680;2022-12-18T09:53:22;38.47;;;17.88;;
297;SDS011;133;49.626;9.680;2022-12-18T09:55:53;36.60;;;17.88;;
297;SDS011;133;49.626;9.680;2022-12-18T09:58:28;36.72;;;18.23;;
297;SDS011;133;49.626;9.680;2022-12-18T10:00:58;43.17;;;19.38;;
297;SDS011;133;49.626;9.680;2022-12-18T10:03:23;45.28;;;20.15;;
297;SDS011;133;49.626;9.680;2022-12-18T10:14:14;38.45;;;19.10;;
297;SDS011;133;49.626;9.680;2022-12-18T10:28:20;33.53;;;18.70;;
297;SDS011;133;49.626;9.680;2022-12-18T10:30:47;37.10;;;18.48;;
297;SDS011;133;49.626;9.680;2022-12-18T10:33:20;34.73;;;17.47;;
297;SDS011;133;49.626;9.680;2022-12-18T10:35:48;35.53;;;17.75;;
297;SDS011;133;49.626;9.680;2022-12-18T10:40:47;36.03;;;17.27;;
297;SDS011;133;49.626;9.680;2022-12-18T10:43:27;32.28;;;15.85;;
297;SDS011;133;49.626;9.680;2022-12-18T10:46:02;33.60;;;16.20;;
297;SDS011;133;49.626;9.680;2022-12-18T10:51:46;35.03;;;16.15;;
297;SDS011;133;49.626;9.680;2022-12-18T10:56:32;32.97;;;15.13;;
297;SDS011;133;49.626;9.680;2022-12-18T10:59:01;39.63;;;16.93;;
297;SDS011;133;49.626;9.680;2022-12-18T11:01:44;32.95;;;15.38;;
297;SDS011;133;49.626;9.680;2022-12-18T11:07:13;34.38;;;15.80;;
297;SDS011;133;49.626;9.680;2022-12-18T11:09:38;37.90;;;17.83;;
297;SDS011;133;49.626;9.680;2022-12-18T11:12:25;31.55;;;15.30;;
297;SDS011;133;49.626;9.680;2022-12-18T11:14:53;34.23;;;16.93;;
297;SDS011;133;49.626;9.680;2022-12-18T11:19:56;32.60;;;16.53;;
297;SDS011;133;49.626;9.680;2022-12-18T11:22:45;31.47;;;15.57;;
297;SDS011;133;49.626;9.680;2022-12-18T11:25:24;33.83;;;17.00;;
297;SDS011;133;49.626;9.680;2022-12-18T11:27:58;33.63;;;17.73;;
297;SDS011;133;49.626;9.680;2022-12-18T11:30:44;31.60;;;15.67;;
297;SDS011;133;49.626;9.680;2022-12-18T11:35:52;32.30;;;15.70;;
297;SDS011;133;49.626;9.680;2022-12-18T11:38:39;32.20;;;17.40;;
297;SDS011;133;49.626;9.680;2022-12-18T11:44:08;38.73;;;17.70;;
297;SDS011;133;49.626;9.680;2022-12-18T11:46:39;35.13;;;19.17;;
297;SDS011;133;49.626;9.680;2022-12-18T11:49:33;43.93;;;22.73;;
297;SDS011;133;49.626;9.680;2022-12-18T11:52:02;36.73;;;20.67;;
297;SDS011;133;49.626;9.680;2022-12-18T11:54:39;39.27;;;20.43;;
297;SDS011;133;49.626;9.680;2022-12-18T12:07:56;32.13;;;15.77;;
297;SDS011;133;49.626;9.680;2022-12-18T12:13:39;32.10;;;16.53;;
297;SDS011;133;49.626;9.680;2022-12-18T12:16:29;31.77;;;16.43;;
297;SDS011;133;49.626;9.680;2022-12-18T12:30:06;27.20;;;13.83;;
297;SDS011;133;49.626;9.680;2022-12-18T12:38:42;32.87;;;15.97;;
297;SDS011;133;49.626;9.680;2022-12-18T12:41:12;30.83;;;16.77;;
297;SDS011;133;49.626;9.680;2022-12-18T12:44:01;26.70;;;14.07;;
297;SDS011;133;49.626;9.680;2022-12-18T12:46:32;30.30;;;15.77;;
297;SDS011;133;49.626;9.680;2022-12-18T12:49:02;33.53;;;15.47;;
297;SDS011;133;49.626;9.680;2022-12-18T12:51:37;33.00;;;15.97;;
297;SDS011;133;49.626;9.680;2022-12-18T12:54:13;27.73;;;14.67;;
297;SDS011;133;49.626;9.680;2022-12-18T12:56:52;27.93;;;14.37;;
297;SDS011;133;49.626;9.680;2022-12-18T13:05:16;28.93;;;14.47;;
297;SDS011;133;49.626;9.680;2022-12-18T13:08:05;28.27;;;14.03;;
297;SDS011;133;49.626;9.680;2022-12-18T13:10:34;29.20;;;14.30;;
297;SDS011;133;49.626;9.680;2022-12-18T13:15:48;32.60;;;15.20;;
297;SDS011;133;49.626;9.680;2022-12-18T13:18:28;30.53;;;14.90;;
297;SDS011;133;49.626;9.680;2022-12-18T13:25:49;29.40;;;14.70;;
297;SDS011;133;49.626;9.680;2022-12-18T13:28:16;29.13;;;16.13;;
297;SDS011;133;49.626;9.680;2022-12-18T13:30:46;29.10;;;14.37;;
297;SDS011;133;49.626;9.680;2022-12-18T13:38:20;33.60;;;15.80;;
297;SDS011;133;49.626;9.680;2022-12-18T13:40:56;29.10;;;14.70;;
297;SDS011;133;49.626;9.680;2022-12-18T13:43:27;27.10;;;14.00;;
297;SDS011;133;49.626;9.680;2022-12-18T13:48:52;25.97;;;14.97;;
297;SDS011;133;49.626;9.680;2022-12-18T13:51:47;26.37;;;14.10;;
297;SDS011;133;49.626;9.680;2022-12-18T13:54:18;30.83;;;14.87;;
297;SDS011;133;49.626;9.680;2022-12-18T13:57:05;25.60;;;14.70;;
297;SDS011;133;49.626;9.680;2022-12-18T13:59:51;27.87;;;14.50;;
297;SDS011;133;49.626;9.680;2022-12-18T14:02:18;30.48;;;14.85;;
297;SDS011;133;49.626;9.680;2022-12-18T14:04:47;29.80;;;15.40;;
297;SDS011;133;49.626;9.680;2022-12-18T14:07:22;32.07;;;15.73;;
297;SDS011;133;49.626;9.680;2022-12-18T14:09:49;26.42;;;13.15;;
297;SDS011;133;49.626;9.680;2022-12-18T14:12:30;26.07;;;13.60;;
297;SDS011;133;49.626;9.680;2022-12-18T14:17:51;26.00;;;13.87;;
297;SDS011;133;49.626;9.680;2022-12-18T14:20:17;23.80;;;13.33;;
297;SDS011;133;49.626;9.680;2022-12-18T14:22:43;26.80;;;13.60;;
297;SDS011;133;49.626;9.680;2022-12-18T14:25:22;25.90;;;13.70;;
297;SDS011;133;49.626;9.680;2022-12-18T14:27:50;26.83;;;13.67;;
297;SDS011;133;49.626;9.680;2022-12-18T14:30:25;28.17;;;13.77;;
297;SDS011;133;49.626;9.680;2022-12-18T14:35:38;27.95;;;14.43;;
297;SDS011;133;49.626;9.680;2022-12-18T14:38:48;35.83;;;17.33;;
297;SDS011;133;49.626;9.680;2022-12-18T14:40:55;28.63;;;14.85;;
297;SDS011;133;49.626;9.680;2022-12-18T14:43:31;29.57;;;14.87;;
297;SDS011;133;49.626;9.680;2022-12-18T14:45:59;26.10;;;14.33;;
297;SDS011;133;49.626;9.680;2022-12-18T14:48:46;30.55;;;14.85;;
297;SDS011;133;49.626;9.680;2022-12-18T14:53:42;28.80;;;13.63;;
297;SDS011;133;49.626;9.680;2022-12-18T14:56:55;26.75;;;13.02;;
297;SDS011;133;49.626;9.680;2022-12-18T14:59:15;29.23;;;14.25;;
297;SDS011;133;49.626;9.680;2022-12-18T15:04:41;28.05;;;14.23;;
297;SDS011;133;49.626;9.680;2022-12-18T15:07:27;24.90;;;14.35;;
297;SDS011;133;49.626;9.680;2022-12-18T15:23:23;31.00;;;15.63;;
297;SDS011;133;49.626;9.680;2022-12-18T15:28:36;30.63;;;15.18;;
297;SDS011;133;49.626;9.680;2022-12-18T15:33:44;34.03;;;15.70;;
297;SDS011;133;49.626;9.680;2022-12-18T15:36:25;29.60;;;15.57;;
297;SDS011;133;49.626;9.680;2022-12-18T15:38:52;31.63;;;15.70;;
297;SDS011;133;49.626;9.680;2022-12-18T15:41:19;41.25;;;20.45;;
297;SDS011;133;49.626;9.680;2022-12-18T15:43:46;34.22;;;17.08;;
297;SDS011;133;49.626;9.680;2022-12-18T15:46:18;29.35;;;15.23;;
297;SDS011;133;49.626;9.680;2022-12-18T15:48:52;29.15;;;16.00;;
297;SDS011;133;49.626;9.680;2022-12-18T15:51:29;31.48;;;15.23;;
297;SDS011;133;49.626;9.680;2022-12-18T15:53:57;30.25;;;16.02;;
297;SDS011;133;49.626;9.680;2022-12-18T15:56:25;32.97;;;15.73;;
297;SDS011;133;49.626;9.680;2022-12-18T15:59:16;32.50;;;15.05;;
297;SDS011;133;49.626;9.680;2022-12-18T16:01:46;33.90;;;16.58;;
297;SDS011;133;49.626;9.680;2022-12-18T16:04:14;31.88;;;15.75;;
297;SDS011;133;49.626;9.680;2022-12-18T16:06:41;31.75;;;15.63;;
297;SDS011;133;49.626;9.680;2022-12-18T16:09:07;33.37;;;17.53;;
297;SDS011;133;49.626;9.680;2022-12-18T16:11:34;33.65;;;16.50;;
297;SDS011;133;49.626;9.680;2022-12-18T16:16:41;30.92;;;16.20;;
297;SDS011;133;49.626;9.680;2022-12-18T16:19:07;34.60;;;16.97;;
297;SDS011;133;49.626;9.680;2022-12-18T16:21:33;28.93;;;14.30;;
297;SDS011;133;49.626;9.680;2022-12-18T16:23:58;35.33;;;15.13;;
297;SDS011;133;49.626;9.680;2022-12-18T16:26:24;34.30;;;16.30;;
297;SDS011;133;49.626;9.680;2022-12-18T16:28:49;29.90;;;15.40;;
297;SDS011;133;49.626;9.680;2022-12-18T16:31:15;36.30;;;16.80;;
297;SDS011;133;49.626;9.680;2022-12-18T16:33:41;36.30;;;16.80;;
297;SDS011;133;49.626;9.680;2022-12-18T16:36:06;34.20;;;16.90;;
297;SDS011;133;49.626;9.680;2022-12-18T16:38:32;33.78;;;15.85;;
297;SDS011;133;49.626;9.680;2022-12-18T16:40:58;29.87;;;14.97;;
297;SDS011;133;49.626;9.680;2022-12-18T16:43:42;32.97;;;15.85;;
297;SDS011;133;49.626;9.680;2022-12-18T16:46:08;29.20;;;15.20;;
297;SDS011;133;49.626;9.680;2022-12-18T16:48:33;28.70;;;15.07;;
297;SDS011;133;49.626;9.680;2022-12-18T16:51:00;32.67;;;16.17;;
297;SDS011;133;49.626;9.680;2022-12-18T16:53:26;30.50;;;15.18;;
297;SDS011;133;49.626;9.680;2022-12-18T16:55:55;35.07;;;16.40;;
297;SDS011;133;49.626;9.680;2022-12-18T16:58:21;35.33;;;16.77;;
297;SDS011;133;49.626;9.680;2022-12-18T17:00:47;31.07;;;15.77;;
297;SDS011;133;49.626;9.680;2022-12-18T17:03:13;33.17;;;15.60;;
297;SDS011;133;49.626;9.680;2022-12-18T17:05:38;32.80;;;14.77;;
297;SDS011;133;49.626;9.680;2022-12-18T17:08:04;29.97;;;15.90;;
297;SDS011;133;49.626;9.680;2022-12-18T17:10:30;29.10;;;16.50;;
297;SDS011;133;49.626;9.680;2022-12-18T17:12:56;36.30;;;17.47;;
297;SDS011;133;49.626;9.680;2022-12-18T17:15:21;31.63;;;16.70;;
297;SDS011;133;49.626;9.680;2022-12-18T17:17:47;31.90;;;17.07;;
297;SDS011;133;49.626;9.680;2022-12-18T17:20:13;32.00;;;16.60;;
297;SDS011;133;49.626;9.680;2022-12-18T17:22:38;34.63;;;17.10;;
297;SDS011;133;49.626;9.680;2022-12-18T17:25:04;32.47;;;16.00;;
297;SDS011;133;49.626;9.680;2022-12-18T17:27:30;29.97;;;16.20;;
297;SDS011;133;49.626;9.680;2022-12-18T17:29:55;31.33;;;16.40;;
297;SDS011;133;49.626;9.680;2022-12-18T17:32:21;32.30;;;15.70;;
297;SDS011;133;49.626;9.680;2022-12-18T17:34:47;32.93;;;16.80;;
297;SDS011;133;49.626;9.680;2022-12-18T17:37:12;31.50;;;16.50;;
297;SDS011;133;49.626;9.680;2022-12-18T17:39:38;34.10;;;15.87;;
297;SDS011;133;49.626;9.680;2022-12-18T17:42:04;32.30;;;16.27;;
297;SDS011;133;49.626;9.680;2022-12-18T17:44:29;32.63;;;15.73;;
297;SDS011;133;49.626;9.680;2022-12-18T17:46:55;27.83;;;15.80;;
297;SDS011;133;49.626;9.680;2022-12-18T17:49:20;33.10;;;15.70;;
297;SDS011;133;49.626;9.680;2022-12-18T17:51:46;31.30;;;17.53;;
297;SDS011;133;49.626;9.680;2022-12-18T17:54:12;33.78;;;17.00;;
297;SDS011;133;49.626;9.680;2022-12-18T17:56:38;32.33;;;16.65;;
297;SDS011;133;49.626;9.680;2022-12-18T17:59:04;36.10;;;17.40;;
297;SDS011;133;49.626;9.680;2022-12-18T18:01:31;32.33;;;16.70;;
297;SDS011;133;49.626;9.680;2022-12-18T18:03:56;36.90;;;17.57;;
297;SDS011;133;49.626;9.680;2022-12-18T18:06:24;34.25;;;17.75;;